Time;durP1;ratioP1;P1;durP2;ratioP2;P2;SDS_P1;SDS_P2;PMS_P1;PMS_P2;Temp;Humidity;BMP_temperature;BMP_pressure;BME280_temperature;BME280_humidity;BME280_pressure;Samples;Min_cycle;Max_cycle;Signal;HPM_P1;HPM_P2
2022/05/12 00:00:06;;;;;;;4.35;2.33;;;17.50;99.90;;;;;;5051914;28;20174;-48
2022/05/12 00:02:32;;;;;;;3.80;2.40;;;17.40;99.90;;;;;;5052774;28;20173;-46
2022/05/12 00:04:59;;;;;;;7.32;2.25;;;17.40;99.90;;;;;;5053097;28;20170;-48
2022/05/12 00:07:25;;;;;;;5.45;2.30;;;17.40;99.90;;;;;;5053274;28;20244;-47
2022/05/12 00:09:51;;;;;;;6.53;2.45;;;17.30;99.90;;;;;;5053152;28;20221;-47
2022/05/12 00:12:17;;;;;;;3.78;2.58;;;17.30;99.90;;;;;;5052902;28;20224;-47
2022/05/12 00:14:42;;;;;;;6.40;3.17;;;17.20;99.90;;;;;;5052914;28;20205;-47
2022/05/12 00:17:08;;;;;;;9.95;2.40;;;17.20;99.90;;;;;;5053382;28;20169;-48
2022/05/12 00:19:33;;;;;;;4.82;2.35;;;17.20;99.90;;;;;;5052994;28;20193;-46
2022/05/12 00:21:59;;;;;;;6.38;2.60;;;17.20;99.90;;;;;;5052791;28;20610;-47
2022/05/12 00:24:24;;;;;;;5.70;2.47;;;17.20;99.90;;;;;;5052742;28;20159;-46
2022/05/12 00:26:50;;;;;;;3.83;2.40;;;17.20;99.90;;;;;;5052779;28;20177;-47
2022/05/12 00:29:16;;;;;;;6.38;2.30;;;17.20;99.90;;;;;;5052625;28;20175;-48
2022/05/12 00:31:45;;;;;;;6.05;2.30;;;17.10;99.90;;;;;;5052564;28;20257;-47
2022/05/12 00:34:12;;;;;;;6.50;2.17;;;17.00;99.90;;;;;;5052516;28;20159;-47
2022/05/12 00:36:38;;;;;;;4.78;2.20;;;17.00;99.90;;;;;;5052814;28;20236;-48
2022/05/12 00:39:04;;;;;;;4.97;2.45;;;17.00;99.90;;;;;;5052375;28;20167;-47
2022/05/12 00:41:30;;;;;;;7.60;2.72;;;16.90;99.90;;;;;;5052450;28;20170;-48
2022/05/12 00:44:02;;;;;;;6.40;2.00;;;16.90;99.90;;;;;;5052446;28;20651;-54
2022/05/12 00:46:35;;;;;;;7.50;2.55;;;16.90;99.90;;;;;;5052445;28;20250;-55
2022/05/12 00:49:19;;;;;;;5.93;2.30;;;16.80;99.90;;;;;;5052550;28;20208;-54
2022/05/12 00:51:49;;;;;;;5.47;2.53;;;16.80;99.90;;;;;;5052507;28;20170;-54
2022/05/12 00:54:34;;;;;;;6.28;2.30;;;16.90;99.90;;;;;;5052282;28;20181;-54
2022/05/12 00:57:02;;;;;;;5.45;2.30;;;16.90;99.90;;;;;;5051939;28;20186;-54
2022/05/12 00:59:32;;;;;;;7.53;2.33;;;16.80;99.90;;;;;;5052181;28;20159;-55
2022/05/12 01:02:00;;;;;;;6.95;2.20;;;16.90;99.90;;;;;;5052022;28;20197;-55
2022/05/12 01:04:27;;;;;;;4.07;2.40;;;16.90;99.90;;;;;;5051922;28;20268;-55
2022/05/12 01:06:52;;;;;;;4.65;2.30;;;16.90;99.90;;;;;;5052049;28;20182;-54
2022/05/12 01:09:20;;;;;;;6.15;2.75;;;16.90;99.90;;;;;;5051982;28;20159;-54
2022/05/12 01:11:50;;;;;;;7.78;2.55;;;16.80;99.90;;;;;;5051930;28;20181;-55
2022/05/12 01:14:16;;;;;;;8.00;2.50;;;16.90;99.90;;;;;;5051955;28;20169;-55
2022/05/12 01:16:50;;;;;;;6.18;2.70;;;16.70;99.90;;;;;;5052170;28;20174;-55
2022/05/12 01:19:22;;;;;;;7.22;3.20;;;16.70;99.90;;;;;;5051919;28;20177;-50
2022/05/12 01:21:49;;;;;;;8.02;3.22;;;16.70;99.90;;;;;;5051887;28;20216;-48
2022/05/12 01:24:17;;;;;;;5.32;2.97;;;16.60;99.90;;;;;;5051821;28;20190;-48
2022/05/12 01:26:42;;;;;;;5.80;2.90;;;16.50;99.90;;;;;;5051833;28;20664;-46
2022/05/12 01:29:09;;;;;;;5.65;2.53;;;16.40;99.90;;;;;;5052314;28;20254;-47
2022/05/12 01:31:36;;;;;;;5.63;2.70;;;16.20;99.90;;;;;;5051774;28;20167;-47
2022/05/12 01:34:04;;;;;;;5.65;3.15;;;16.30;99.90;;;;;;5056133;28;20182;-47
2022/05/12 01:36:30;;;;;;;6.10;2.92;;;16.20;99.90;;;;;;5055856;28;20163;-48
2022/05/12 01:38:56;;;;;;;8.40;2.83;;;16.20;99.90;;;;;;5055875;28;20182;-50
2022/05/12 01:41:21;;;;;;;6.97;3.05;;;16.10;99.90;;;;;;5056009;28;20171;-46
2022/05/12 01:43:47;;;;;;;7.00;2.95;;;15.90;99.90;;;;;;5056081;28;20240;-47
2022/05/12 01:46:12;;;;;;;7.82;2.38;;;16.00;99.90;;;;;;5055712;28;20316;-47
2022/05/12 01:48:38;;;;;;;5.05;2.95;;;16.00;99.90;;;;;;5055961;28;20178;-48
2022/05/12 01:51:05;;;;;;;7.43;2.88;;;16.00;99.90;;;;;;5055618;28;20206;-47
2022/05/12 01:53:30;;;;;;;6.15;3.40;;;15.90;99.90;;;;;;5055870;28;20517;-47
2022/05/12 01:55:57;;;;;;;4.85;2.47;;;15.80;99.90;;;;;;5055568;28;20181;-47
2022/05/12 01:58:23;;;;;;;5.15;3.20;;;15.70;99.90;;;;;;5055786;28;20179;-47
2022/05/12 02:00:48;;;;;;;3.95;3.13;;;15.70;99.90;;;;;;5055481;28;20508;-47
2022/05/12 02:03:14;;;;;;;7.55;3.67;;;15.60;99.90;;;;;;5055233;28;20210;-48
2022/05/12 02:05:41;;;;;;;6.00;3.80;;;15.60;99.90;;;;;;5055628;28;20171;-47
2022/05/12 02:08:08;;;;;;;6.30;3.78;;;15.40;99.90;;;;;;5055626;28;20246;-48
2022/05/12 02:10:39;;;;;;;7.88;3.92;;;15.30;99.90;;;;;;5055486;28;20240;-47
2022/05/12 02:13:11;;;;;;;5.72;3.90;;;15.30;99.90;;;;;;5055169;28;20228;-46
2022/05/12 02:15:38;;;;;;;5.63;3.75;;;15.30;99.90;;;;;;5055749;28;20249;-47
2022/05/12 02:18:05;;;;;;;8.98;3.88;;;15.30;99.90;;;;;;5055066;28;20629;-46
2022/05/12 02:20:31;;;;;;;8.77;3.90;;;15.30;99.90;;;;;;5055062;28;20202;-47
2022/05/12 02:22:57;;;;;;;5.32;3.60;;;15.30;99.90;;;;;;5055143;28;20307;-48
2022/05/12 02:25:22;;;;;;;10.93;3.85;;;15.20;99.90;;;;;;5054974;28;20200;-48
2022/05/12 02:27:50;;;;;;;7.10;4.03;;;15.10;99.90;;;;;;5054910;28;20231;-47
2022/05/12 02:30:27;;;;;;;9.43;4.28;;;15.10;99.90;;;;;;5054776;28;20666;-47
2022/05/12 02:32:53;;;;;;;8.70;4.13;;;15.10;99.90;;;;;;5054867;28;20166;-47
2022/05/12 02:35:19;;;;;;;6.53;4.03;;;15.00;99.90;;;;;;5054737;28;20170;-47
2022/05/12 02:37:45;;;;;;;4.75;4.20;;;15.10;99.90;;;;;;5054825;28;20170;-46
2022/05/12 02:40:14;;;;;;;8.70;4.22;;;15.10;99.90;;;;;;5054664;28;20635;-47
2022/05/12 02:42:40;;;;;;;6.40;4.25;;;15.00;99.90;;;;;;5054612;28;20195;-46
2022/05/12 02:45:07;;;;;;;7.28;5.18;;;15.00;99.90;;;;;;5053759;28;20666;-48
2022/05/12 02:47:33;;;;;;;12.18;4.85;;;15.00;99.90;;;;;;5054587;28;20293;-47
2022/05/12 02:49:59;;;;;;;8.43;4.20;;;15.00;99.90;;;;;;5054428;28;20210;-46
2022/05/12 02:52:24;;;;;;;8.00;5.05;;;14.90;99.90;;;;;;5054722;28;20170;-46
2022/05/12 02:54:50;;;;;;;8.88;3.97;;;14.90;99.90;;;;;;5054397;28;20174;-46
2022/05/12 02:57:15;;;;;;;7.15;4.57;;;14.80;99.90;;;;;;5054421;28;20232;-46
2022/05/12 02:59:41;;;;;;;5.70;3.80;;;14.80;99.90;;;;;;5054292;28;20624;-47
2022/05/12 03:02:06;;;;;;;9.27;4.35;;;14.70;99.90;;;;;;5054584;28;20206;-48
2022/05/12 03:04:33;;;;;;;9.75;4.18;;;14.70;99.90;;;;;;5054125;28;20215;-46
2022/05/12 03:06:59;;;;;;;6.82;4.07;;;14.60;99.90;;;;;;5054438;28;20273;-47
2022/05/12 03:09:25;;;;;;;8.80;3.95;;;14.50;99.90;;;;;;5054022;28;20220;-46
2022/05/12 03:11:50;;;;;;;5.38;3.90;;;14.60;99.90;;;;;;5054173;28;20644;-46
2022/05/12 03:14:16;;;;;;;8.38;4.78;;;14.70;99.90;;;;;;5054107;28;20167;-46
2022/05/12 03:16:42;;;;;;;8.43;5.55;;;14.60;99.90;;;;;;5054113;28;20174;-47
2022/05/12 03:19:08;;;;;;;8.20;4.28;;;14.60;99.90;;;;;;5054257;28;20169;-47
2022/05/12 03:21:34;;;;;;;9.85;5.00;;;14.60;99.90;;;;;;5054165;28;20244;-47
2022/05/12 03:24:00;;;;;;;5.82;4.68;;;14.50;99.90;;;;;;5053839;28;20158;-46
2022/05/12 03:26:26;;;;;;;9.10;4.50;;;14.50;99.90;;;;;;5053782;28;20158;-46
2022/05/12 03:28:52;;;;;;;8.85;4.40;;;14.50;99.90;;;;;;5053800;28;20170;-46
2022/05/12 03:31:18;;;;;;;5.80;4.10;;;14.50;99.90;;;;;;5053941;28;20663;-46
2022/05/12 03:33:46;;;;;;;10.32;4.45;;;14.50;99.90;;;;;;5053917;28;20202;-46
2022/05/12 03:36:12;;;;;;;9.00;4.60;;;14.50;99.90;;;;;;5053536;28;20635;-46
2022/05/12 03:38:37;;;;;;;11.77;4.60;;;14.40;99.90;;;;;;5053877;28;20173;-46
2022/05/12 03:41:03;;;;;;;7.88;4.22;;;14.40;99.90;;;;;;5053846;28;20628;-47
2022/05/12 03:46:13;;;;;;;5.38;4.03;;;14.40;99.90;;;;;;5053443;28;20173;-46
2022/05/12 03:48:40;;;;;;;8.65;4.47;;;14.40;99.90;;;;;;5053702;28;20538;-46
2022/05/12 03:51:07;;;;;;;9.70;4.80;;;14.40;99.90;;;;;;5053504;28;20255;-46
2022/05/12 03:53:33;;;;;;;4.85;3.45;;;14.40;99.90;;;;;;5053007;28;20171;-47
2022/05/12 03:56:00;;;;;;;14.05;4.63;;;14.50;99.90;;;;;;5052861;28;20204;-48
2022/05/12 03:58:26;;;;;;;10.93;4.40;;;14.40;99.90;;;;;;5052241;28;20657;-48
2022/05/12 04:00:52;;;;;;;8.65;4.45;;;14.50;99.90;;;;;;5053226;28;20249;-46
2022/05/12 04:03:18;;;;;;;7.50;3.78;;;14.50;99.90;;;;;;5052986;28;20562;-47
2022/05/12 04:05:44;;;;;;;6.60;3.80;;;14.50;99.90;;;;;;5053026;28;20177;-52
2022/05/12 04:08:09;;;;;;;7.25;4.00;;;14.50;99.90;;;;;;5053589;28;20221;-53
2022/05/12 04:10:35;;;;;;;8.18;4.60;;;14.50;99.90;;;;;;5052908;28;20221;-53
2022/05/12 04:13:02;;;;;;;8.43;4.43;;;14.60;99.90;;;;;;5053105;28;20261;-53
2022/05/12 04:15:28;;;;;;;10.23;4.03;;;14.40;99.90;;;;;;5052669;28;20246;-54
2022/05/12 04:17:58;;;;;;;9.32;4.20;;;14.50;99.90;;;;;;5052914;28;20163;-51
2022/05/12 04:20:26;;;;;;;7.43;4.30;;;14.50;99.90;;;;;;5052751;28;20202;-51
2022/05/12 04:22:53;;;;;;;6.05;4.10;;;14.60;99.90;;;;;;5052933;28;20623;-51
2022/05/12 04:25:19;;;;;;;13.20;5.18;;;14.60;99.90;;;;;;5053018;28;20170;-50
2022/05/12 04:27:45;;;;;;;7.82;4.88;;;14.70;99.90;;;;;;5052625;28;20199;-52
2022/05/12 04:30:13;;;;;;;7.70;4.32;;;14.80;99.90;;;;;;5052615;28;20206;-48
2022/05/12 04:32:39;;;;;;;8.40;4.95;;;14.80;99.90;;;;;;5053184;28;20181;-49
2022/05/12 04:35:12;;;;;;;11.38;5.38;;;14.60;99.90;;;;;;5052732;28;20213;-49
2022/05/12 04:37:40;;;;;;;8.13;4.32;;;14.70;99.90;;;;;;5052781;28;20159;-48
2022/05/12 04:40:10;;;;;;;7.18;4.20;;;14.70;99.90;;;;;;5052710;28;20162;-48
2022/05/12 04:42:35;;;;;;;14.10;4.32;;;14.70;99.90;;;;;;5052792;28;20173;-50
2022/05/12 04:45:01;;;;;;;10.05;4.28;;;14.70;99.90;;;;;;5052305;28;20245;-47
2022/05/12 04:47:27;;;;;;;8.75;3.95;;;14.80;99.90;;;;;;5052176;28;20639;-51
2022/05/12 04:49:52;;;;;;;10.48;4.40;;;14.80;99.90;;;;;;5052091;28;20198;-48
2022/05/12 04:52:18;;;;;;;8.73;4.22;;;14.80;99.90;;;;;;5052246;28;20174;-51
2022/05/12 04:54:43;;;;;;;8.68;3.65;;;14.80;99.90;;;;;;5052072;28;20190;-49
2022/05/12 04:57:09;;;;;;;6.63;3.83;;;14.80;99.90;;;;;;5052484;28;20670;-54
2022/05/12 04:59:34;;;;;;;13.20;4.65;;;14.80;99.90;;;;;;5052335;28;20170;-54
2022/05/12 05:02:00;;;;;;;10.10;3.58;;;14.80;99.90;;;;;;5052099;28;20175;-52
2022/05/12 05:04:26;;;;;;;12.60;4.03;;;14.80;99.90;;;;;;5051797;28;20288;-53
2022/05/12 05:06:52;;;;;;;11.80;4.00;;;15.00;99.90;;;;;;5051250;28;20158;-49
2022/05/12 05:09:17;;;;;;;6.22;3.47;;;15.20;99.90;;;;;;5052007;28;20194;-49
2022/05/12 05:11:43;;;;;;;8.50;3.58;;;15.30;99.90;;;;;;5051952;28;20220;-47
2022/05/12 05:14:09;;;;;;;7.95;3.65;;;15.40;99.90;;;;;;5052429;28;20594;-48
2022/05/12 05:16:35;;;;;;;11.25;3.80;;;15.40;99.90;;;;;;5051967;28;20166;-46
2022/05/12 05:19:00;;;;;;;7.70;3.33;;;15.50;99.90;;;;;;5052122;28;20497;-46
2022/05/12 05:21:26;;;;;;;10.23;3.92;;;15.40;99.90;;;;;;5051876;28;20202;-48
2022/05/12 05:23:52;;;;;;;7.95;3.83;;;15.50;99.90;;;;;;5051792;28;20622;-47
2022/05/12 05:26:18;;;;;;;10.40;3.90;;;15.80;99.90;;;;;;5051887;28;20167;-47
2022/05/12 05:28:44;;;;;;;9.15;3.55;;;15.90;99.90;;;;;;5052017;28;20198;-47
2022/05/12 05:31:09;;;;;;;9.20;3.53;;;15.90;99.90;;;;;;5051994;28;20241;-47
2022/05/12 05:33:35;;;;;;;8.90;3.45;;;15.70;99.90;;;;;;5052203;28;20578;-46
2022/05/12 05:36:01;;;;;;;6.63;2.90;;;15.70;99.90;;;;;;5051735;28;20170;-48
2022/05/12 05:38:26;;;;;;;7.10;3.40;;;15.70;99.90;;;;;;5052094;28;20170;-49
2022/05/12 05:40:52;;;;;;;8.95;3.13;;;15.60;99.90;;;;;;5051932;28;20175;-49
2022/05/12 05:43:18;;;;;;;6.43;2.72;;;15.60;99.90;;;;;;5051923;28;20659;-44
2022/05/12 05:45:44;;;;;;;9.40;3.65;;;15.70;99.90;;;;;;5051637;28;20202;-45
2022/05/12 05:48:10;;;;;;;6.25;3.00;;;15.50;99.90;;;;;;5051788;28;20171;-54
2022/05/12 05:53:28;;;;;;;6.60;3.40;;;15.50;99.90;;;;;;5051811;28;20240;-54
2022/05/12 05:55:56;;;;;;;9.75;3.40;;;15.50;99.90;;;;;;5051509;28;20173;-53
2022/05/12 05:58:23;;;;;;;9.25;3.53;;;15.50;99.90;;;;;;5051530;28;20647;-53
2022/05/12 06:00:49;;;;;;;7.85;3.70;;;15.70;99.90;;;;;;5051549;28;20167;-53
2022/05/12 06:03:15;;;;;;;6.15;3.53;;;15.80;99.90;;;;;;5051382;28;20222;-53
2022/05/12 06:05:41;;;;;;;7.95;4.10;;;15.70;99.90;;;;;;5051443;28;20171;-53
2022/05/12 06:08:10;;;;;;;9.25;3.92;;;15.70;99.90;;;;;;5051727;28;20532;-52
2022/05/12 06:10:36;;;;;;;6.70;3.83;;;15.80;99.90;;;;;;5051896;28;20241;-52
2022/05/12 06:13:03;;;;;;;14.52;4.70;;;15.80;99.90;;;;;;5051271;28;20607;-52
2022/05/12 06:15:28;;;;;;;8.43;3.97;;;15.80;99.90;;;;;;5051656;28;20202;-52
2022/05/12 06:17:54;;;;;;;11.88;3.78;;;15.80;99.90;;;;;;5051856;28;20204;-52
2022/05/12 06:20:22;;;;;;;8.07;4.55;;;16.00;99.90;;;;;;5055248;28;20198;-52
2022/05/12 06:22:48;;;;;;;9.25;4.50;;;16.10;99.90;;;;;;5055320;28;20269;-52
2022/05/12 06:25:16;;;;;;;9.25;4.75;;;16.40;99.90;;;;;;5055040;28;20651;-53
2022/05/12 06:27:43;;;;;;;11.30;4.30;;;16.40;99.90;;;;;;5055193;28;20175;-52
2022/05/12 06:30:12;;;;;;;13.27;5.35;;;16.50;99.90;;;;;;5055074;28;20236;-52
2022/05/12 06:32:39;;;;;;;14.98;5.60;;;15.10;99.90;;;;;;5055170;28;20167;-52
2022/05/12 06:35:07;;;;;;;11.75;5.90;;;16.80;99.90;;;;;;5055203;28;20193;-53
2022/05/12 06:37:32;;;;;;;11.00;6.45;;;17.00;99.90;;;;;;5054747;28;20181;-52
2022/05/12 06:39:58;;;;;;;12.30;7.07;;;17.10;99.90;;;;;;5054624;28;20246;-53
2022/05/12 06:42:23;;;;;;;13.23;8.85;;;17.20;99.90;;;;;;5054634;28;20197;-55
2022/05/12 06:44:50;;;;;;;15.15;8.80;;;17.10;99.90;;;;;;5054698;28;20163;-55
2022/05/12 06:47:16;;;;;;;15.05;8.90;;;17.00;99.90;;;;;;5054656;28;20159;-54
2022/05/12 06:49:43;;;;;;;11.57;9.63;;;16.90;99.90;;;;;;5054759;28;20276;-55
2022/05/12 06:52:10;;;;;;;13.55;8.40;;;17.00;99.90;;;;;;5055064;28;20171;-54
2022/05/12 06:54:37;;;;;;;10.65;8.13;;;17.20;99.90;;;;;;5054981;28;20170;-54
2022/05/12 06:57:03;;;;;;;15.90;8.80;;;17.30;99.90;;;;;;5053106;28;20166;-55
2022/05/12 06:59:29;;;;;;;14.70;8.25;;;17.30;99.90;;;;;;5054392;28;20162;-55
2022/05/12 07:01:55;;;;;;;10.82;8.60;;;17.50;99.90;;;;;;5054262;28;20233;-55
2022/05/12 07:04:21;;;;;;;13.85;8.20;;;17.20;99.90;;;;;;5054192;28;20550;-55
2022/05/12 07:06:47;;;;;;;11.00;7.47;;;17.10;99.90;;;;;;5054445;28;20170;-55
2022/05/12 07:09:13;;;;;;;13.18;8.40;;;17.20;99.90;;;;;;5054235;28;20236;-55
2022/05/12 07:11:39;;;;;;;12.40;8.38;;;17.30;99.90;;;;;;5054457;28;20198;-54
2022/05/12 07:14:05;;;;;;;15.95;9.48;;;17.40;99.90;;;;;;5054330;28;20257;-55
2022/05/12 07:16:31;;;;;;;12.90;6.90;;;17.80;99.90;;;;;;5053999;28;20568;-55
2022/05/12 07:18:56;;;;;;;10.55;7.90;;;17.60;99.90;;;;;;5054169;28;20201;-55
2022/05/12 07:26:54;;;;;;;12.02;6.43;;;17.90;99.90;;;;;;5054142;28;20255;-55
2022/05/12 07:29:25;;;;;;;9.18;6.53;;;17.90;99.90;;;;;;5053088;28;20576;-55
2022/05/12 07:31:51;;;;;;;11.32;6.63;;;17.40;99.90;;;;;;5053724;28;20185;-55
2022/05/12 07:34:18;;;;;;;9.82;6.45;;;17.70;99.90;;;;;;5053942;28;20258;-55
2022/05/12 07:36:46;;;;;;;6.88;4.93;;;18.10;99.90;;;;;;5053544;28;20182;-55
2022/05/12 07:39:12;;;;;;;5.53;4.00;;;18.10;99.90;;;;;;5053568;28;20166;-55
2022/05/12 07:41:41;;;;;;;7.68;4.15;;;18.30;99.90;;;;;;5053815;28;20167;-55
2022/05/12 07:44:09;;;;;;;10.45;4.95;;;18.40;99.90;;;;;;5054073;28;20253;-55
2022/05/12 07:46:35;;;;;;;8.25;4.70;;;18.60;99.90;;;;;;5053548;28;20534;-56
2022/05/12 07:49:00;;;;;;;6.20;3.85;;;18.50;99.90;;;;;;5053487;28;20636;-55
2022/05/12 07:51:26;;;;;;;8.50;5.05;;;18.70;99.90;;;;;;5053315;28;20620;-55
2022/05/12 07:53:52;;;;;;;7.60;4.63;;;18.80;99.90;;;;;;5053574;28;20175;-56
2022/05/12 07:56:25;;;;;;;6.82;3.80;;;19.00;99.90;;;;;;5053326;28;20651;-56
2022/05/12 07:58:51;;;;;;;7.50;3.17;;;19.00;99.90;;;;;;5053236;28;20617;-55
2022/05/12 08:01:18;;;;;;;5.65;3.13;;;19.10;99.90;;;;;;5053169;28;20158;-55
2022/05/12 08:03:44;;;;;;;5.25;3.28;;;18.60;99.90;;;;;;5052901;28;20222;-55
2022/05/12 08:06:10;;;;;;;5.32;4.03;;;18.70;99.90;;;;;;5053057;28;20585;-55
2022/05/12 08:08:36;;;;;;;11.20;4.43;;;18.70;99.90;;;;;;5053356;28;20232;-56
2022/05/12 08:11:03;;;;;;;11.13;4.65;;;19.00;99.90;;;;;;5052864;28;20202;-55
2022/05/12 08:13:29;;;;;;;6.95;4.18;;;19.20;99.90;;;;;;5052891;28;20170;-55
2022/05/12 08:15:55;;;;;;;4.38;2.40;;;19.20;99.90;;;;;;5053204;28;20167;-56
2022/05/12 08:18:23;;;;;;;4.18;2.53;;;19.10;99.90;;;;;;5052796;28;20178;-55
2022/05/12 08:20:49;;;;;;;5.90;3.45;;;18.90;99.90;;;;;;5052792;28;20170;-55
2022/05/12 08:23:15;;;;;;;6.38;3.28;;;18.60;99.90;;;;;;5052824;28;20170;-56
2022/05/12 08:25:43;;;;;;;8.45;4.70;;;18.90;99.90;;;;;;5052964;28;20243;-55
2022/05/12 08:28:12;;;;;;;8.95;4.40;;;19.30;99.90;;;;;;5052910;28;20165;-56
2022/05/12 08:30:37;;;;;;;8.07;4.07;;;19.40;99.90;;;;;;5052868;28;20617;-54
2022/05/12 08:33:03;;;;;;;7.00;4.03;;;19.10;99.90;;;;;;5052624;28;20162;-55
2022/05/12 08:35:28;;;;;;;10.45;4.22;;;18.80;99.90;;;;;;5052539;28;20174;-55
2022/05/12 08:37:54;;;;;;;5.20;3.58;;;18.50;99.90;;;;;;5052456;28;20233;-55
2022/05/12 08:40:32;;;;;;;5.35;3.70;;;18.80;99.90;;;;;;5052646;28;20163;-55
2022/05/12 08:43:09;;;;;;;6.53;3.50;;;19.30;99.90;;;;;;5052292;28;20190;-55
2022/05/12 08:45:35;;;;;;;6.30;4.15;;;19.20;99.90;;;;;;5052376;28;20621;-55
2022/05/12 08:48:01;;;;;;;5.05;4.00;;;18.80;99.90;;;;;;5052286;28;20171;-55
2022/05/12 08:50:29;;;;;;;6.20;4.28;;;19.00;99.90;;;;;;5052165;28;20232;-56
2022/05/12 08:53:05;;;;;;;5.63;3.30;;;19.40;99.90;;;;;;5052237;28;20513;-55
2022/05/12 08:55:45;;;;;;;8.32;3.42;;;19.50;99.90;;;;;;5052158;28;20162;-55
2022/05/12 08:58:34;;;;;;;8.15;3.55;;;19.80;99.90;;;;;;5052098;28;20644;-55
2022/05/12 09:01:24;;;;;;;6.07;3.40;;;19.80;99.90;;;;;;5052105;28;20158;-55
2022/05/12 09:04:27;;;;;;;4.38;3.22;;;19.60;99.90;;;;;;5052080;28;20715;-55
2022/05/12 09:07:08;;;;;;;4.43;3.10;;;20.00;99.90;;;;;;5051985;28;20528;-55
2022/05/12 09:10:01;;;;;;;3.85;2.88;;;20.40;99.90;;;;;;5051946;28;20194;-55
2022/05/12 09:12:50;;;;;;;4.03;2.42;;;20.40;99.90;;;;;;5052052;28;20170;-55
2022/05/12 09:15:44;;;;;;;8.32;2.42;;;19.90;99.90;;;;;;5051878;28;20202;-56
2022/05/12 09:18:19;;;;;;;5.95;2.90;;;19.90;99.90;;;;;;5051817;28;20712;-56
2022/05/12 09:20:45;;;;;;;6.05;2.80;;;20.10;99.90;;;;;;5051834;28;20170;-56
2022/05/12 09:23:11;;;;;;;4.15;2.25;;;20.40;99.90;;;;;;5050628;28;20176;-56
2022/05/12 09:25:47;;;;;;;8.30;3.20;;;20.80;99.90;;;;;;5052027;28;20162;-56
2022/05/12 09:28:27;;;;;;;6.22;2.45;;;20.70;99.90;;;;;;5050579;28;20635;-56
2022/05/12 09:30:55;;;;;;;5.53;3.05;;;20.70;99.90;;;;;;5051980;28;20611;-55
2022/05/12 09:33:29;;;;;;;5.63;2.70;;;20.90;99.90;;;;;;5051797;28;20640;-56
2022/05/12 09:35:57;;;;;;;3.83;2.10;;;21.10;99.90;;;;;;5051720;28;20178;-57
2022/05/12 09:38:26;;;;;;;3.13;1.73;;;20.90;99.90;;;;;;5051815;28;20197;-56
2022/05/12 09:40:52;;;;;;;3.33;2.10;;;20.90;99.90;;;;;;5051965;28;20190;-56
2022/05/12 09:43:25;;;;;;;3.72;1.95;;;21.10;99.90;;;;;;5051733;28;20201;-56
2022/05/12 09:46:16;;;;;;;5.13;2.30;;;20.90;99.90;;;;;;5051660;28;20178;-56
2022/05/12 09:48:42;;;;;;;4.10;2.25;;;20.90;99.90;;;;;;5051579;28;20257;-56
2022/05/12 09:51:22;;;;;;;4.28;2.17;;;20.80;99.90;;;;;;5051905;28;20211;-56
2022/05/12 09:53:54;;;;;;;4.78;2.20;;;20.80;99.90;;;;;;5053918;28;20170;-56
2022/05/12 09:56:28;;;;;;;3.67;1.90;;;21.00;99.90;;;;;;5054307;28;20170;-55
2022/05/12 09:59:14;;;;;;;9.88;2.50;;;20.80;99.90;;;;;;5055755;28;20170;-56
2022/05/12 10:02:06;;;;;;;6.90;2.00;;;20.80;99.90;;;;;;5055811;28;20159;-55
2022/05/12 10:10:13;;;;;;;4.53;2.00;;;20.90;99.90;;;;;;5055753;28;20221;-56
2022/05/12 10:12:46;;;;;;;5.65;2.05;;;21.10;99.90;;;;;;5055513;28;20241;-55
2022/05/12 10:15:31;;;;;;;3.78;1.75;;;20.60;99.90;;;;;;5055480;28;20205;-55
2022/05/12 10:18:02;;;;;;;7.47;2.45;;;21.40;99.90;;;;;;5055085;28;20202;-55
2022/05/12 10:20:29;;;;;;;4.65;1.80;;;21.60;99.90;;;;;;5055146;28;20225;-56
2022/05/12 10:23:07;;;;;;;3.92;1.92;;;21.30;99.90;;;;;;5053836;28;20173;-55
2022/05/12 10:26:11;;;;;;;3.92;2.15;;;21.30;99.90;;;;;;5055224;28;20170;-55
2022/05/12 10:28:46;;;;;;;4.35;1.90;;;21.40;99.90;;;;;;5055496;28;20174;-55
2022/05/12 10:31:25;;;;;;;6.38;1.90;;;22.00;99.90;;;;;;5054806;28;20235;-55
2022/05/12 10:34:00;;;;;;;3.15;1.80;;;21.90;99.90;;;;;;5055077;28;20170;-55
2022/05/12 10:37:04;;;;;;;2.20;1.80;;;22.10;99.90;;;;;;5054851;28;20162;-56
2022/05/12 10:39:48;;;;;;;4.82;1.85;;;22.00;98.80;;;;;;5054822;28;20245;-56
2022/05/12 10:42:46;;;;;;;4.40;1.70;;;22.00;99.20;;;;;;5054991;28;20235;-55
2022/05/12 10:45:21;;;;;;;3.65;1.90;;;22.30;96.20;;;;;;5054736;28;20166;-56
2022/05/12 10:48:19;;;;;;;6.88;2.10;;;22.10;95.80;;;;;;5054523;28;20579;-55
2022/05/12 10:51:02;;;;;;;3.13;1.88;;;22.10;95.50;;;;;;5054480;28;20281;-55
2022/05/12 10:53:49;;;;;;;3.53;1.38;;;21.90;94.80;;;;;;5054427;28;20155;-55
2022/05/12 10:56:36;;;;;;;3.90;1.90;;;21.50;90.60;;;;;;5054444;28;20246;-55
2022/05/12 10:59:33;;;;;;;3.38;1.88;;;21.40;91.70;;;;;;5054322;28;20305;-55
2022/05/12 11:02:11;;;;;;;3.10;1.85;;;21.70;92.50;;;;;;5054314;28;20165;-55
2022/05/12 11:04:43;;;;;;;4.22;2.03;;;21.60;91.70;;;;;;5052008;28;20214;-55
2022/05/12 11:07:26;;;;;;;6.75;1.90;;;22.10;91.40;;;;;;5054562;28;20155;-55
2022/05/12 11:10:08;;;;;;;4.30;2.00;;;22.20;94.40;;;;;;5054064;28;20191;-55
2022/05/12 11:12:44;;;;;;;4.03;1.95;;;22.60;94.30;;;;;;5054118;28;20169;-55
2022/05/12 11:15:22;;;;;;;4.68;2.10;;;22.60;92.50;;;;;;5054132;28;20197;-55
2022/05/12 11:18:10;;;;;;;4.07;2.22;;;22.50;93.70;;;;;;5054077;28;20209;-55
2022/05/12 11:20:41;;;;;;;5.70;2.20;;;22.70;94.90;;;;;;5054380;28;20197;-55
2022/05/12 11:23:25;;;;;;;5.82;2.30;;;22.90;94.20;;;;;;5054526;28;20513;-55
2022/05/12 11:26:14;;;;;;;5.45;2.63;;;22.80;94.80;;;;;;5053861;28;20178;-55
2022/05/12 11:32:17;;;;;;;5.30;2.08;;;22.90;95.30;;;;;;5053996;28;20236;-55
2022/05/12 11:34:49;;;;;;;5.63;2.10;;;23.10;92.30;;;;;;5053794;28;20162;-55
2022/05/12 11:37:30;;;;;;;5.78;2.35;;;23.10;94.70;;;;;;5053707;28;20648;-56
2022/05/12 11:39:58;;;;;;;5.05;2.80;;;23.30;95.40;;;;;;5053649;28;20529;-55
2022/05/12 11:42:26;;;;;;;4.13;2.45;;;23.50;94.70;;;;;;5053596;28;20163;-55
2022/05/12 11:45:01;;;;;;;8.48;2.30;;;22.60;93.40;;;;;;5053810;28;20560;-55
2022/05/12 11:48:00;;;;;;;3.22;2.00;;;22.70;93.30;;;;;;5053332;28;20276;-55
2022/05/12 11:50:32;;;;;;;5.15;2.30;;;22.90;93.40;;;;;;5053310;28;20295;-55
2022/05/12 11:53:03;;;;;;;3.60;2.05;;;22.80;92.40;;;;;;5053379;28;20754;-55
2022/05/12 11:55:35;;;;;;;5.45;2.35;;;22.90;92.80;;;;;;5053502;28;20177;-55
2022/05/12 11:58:11;;;;;;;5.25;2.22;;;23.00;93.00;;;;;;5053396;28;20166;-55
2022/05/12 12:00:36;;;;;;;5.20;2.50;;;23.10;92.20;;;;;;5053539;28;20193;-55
2022/05/12 12:03:20;;;;;;;5.38;2.63;;;23.30;94.30;;;;;;5053015;28;20198;-54
2022/05/12 12:05:49;;;;;;;8.95;2.70;;;22.70;91.20;;;;;;5053365;28;20175;-54
2022/05/12 12:08:45;;;;;;;5.90;2.35;;;23.30;92.70;;;;;;5053374;28;20221;-54
2022/05/12 12:11:14;;;;;;;6.68;2.45;;;23.30;91.00;;;;;;5052975;28;20703;-54
2022/05/12 12:13:41;;;;;;;6.45;2.50;;;23.20;90.70;;;;;;5052044;28;20173;-55
2022/05/12 12:16:11;;;;;;;5.07;2.75;;;23.10;91.80;;;;;;5052809;28;20170;-54
2022/05/12 12:18:36;;;;;;;5.18;2.42;;;23.30;90.90;;;;;;5051872;28;20167;-54
2022/05/12 12:21:35;;;;;;;4.00;2.45;;;23.20;91.30;;;;;;5052827;28;20220;-54
2022/05/12 12:24:18;;;;;;;5.43;2.72;;;23.20;91.50;;;;;;5053101;28;21133;-54
2022/05/12 12:26:50;;;;;;;5.00;2.60;;;22.80;90.10;;;;;;5052728;28;20163;-54
2022/05/12 12:29:38;;;;;;;5.10;2.50;;;23.20;90.80;;;;;;5052644;28;20649;-54
2022/05/12 12:32:30;;;;;;;7.30;3.10;;;23.30;91.20;;;;;;5052620;28;20182;-54
2022/05/12 12:35:11;;;;;;;4.72;2.92;;;22.80;90.90;;;;;;5052565;28;20197;-54
2022/05/12 12:37:47;;;;;;;6.72;2.95;;;22.60;90.20;;;;;;5052793;28;20158;-54
2022/05/12 12:40:30;;;;;;;8.15;2.40;;;22.90;90.40;;;;;;5052725;28;20170;-54
2022/05/12 12:42:57;;;;;;;4.35;2.60;;;23.00;91.50;;;;;;5052421;28;20540;-54
2022/05/12 12:45:23;;;;;;;5.68;2.97;;;23.00;91.20;;;;;;5052412;28;20163;-55
2022/05/12 12:47:55;;;;;;;6.32;3.13;;;23.10;91.20;;;;;;5052322;28;20174;-54
2022/05/12 12:50:52;;;;;;;4.75;2.85;;;22.70;91.20;;;;;;5052216;28;20217;-55
2022/05/12 12:56:30;;;;;;;6.93;3.17;;;22.80;91.30;;;;;;5052234;28;20220;-55
2022/05/12 12:56:32;;;;;;;6.82;3.30;;;22.90;90.70;;;;;;5052169;28;20659;-54
2022/05/12 12:59:07;;;;;;;7.60;3.13;;;22.80;91.60;;;;;;5052172;28;20167;-55
2022/05/12 13:01:53;;;;;;;4.20;2.63;;;23.00;91.70;;;;;;5052203;28;20158;-55
2022/05/12 13:04:25;;;;;;;7.05;2.75;;;23.20;90.90;;;;;;5050711;28;20591;-54
2022/05/12 13:07:00;;;;;;;3.63;2.47;;;23.30;91.70;;;;;;5052075;28;20174;-54
2022/05/12 13:09:29;;;;;;;9.70;3.30;;;23.20;91.20;;;;;;5052022;28;20253;-55
2022/05/12 13:12:18;;;;;;;4.47;3.25;;;23.10;91.50;;;;;;5051844;28;20210;-55
2022/05/12 13:14:45;;;;;;;4.15;3.05;;;22.90;90.20;;;;;;5052025;28;20170;-55
2022/05/12 13:17:37;;;;;;;5.72;3.20;;;22.60;92.00;;;;;;5052298;28;20250;-54
2022/05/12 13:20:11;;;;;;;4.60;3.28;;;22.70;91.70;;;;;;5052141;28;20269;-54
2022/05/12 13:22:46;;;;;;;5.10;3.33;;;23.40;91.50;;;;;;5052407;28;20194;-54